sensor_id;sensor_type;location;lat;lon;timestamp;P1;durP1;ratioP1;P2;durP2;ratioP2
52888;SDS011;41413;52.770;6.892;2023-05-07T00:01:20;445.85;;;402.10;;
52888;SDS011;41413;52.770;6.892;2023-05-07T00:03:47;489.02;;;439.05;;
52888;SDS011;41413;52.770;6.892;2023-05-07T00:06:14;462.55;;;418.38;;
52888;SDS011;41413;52.770;6.892;2023-05-07T00:08:41;442.58;;;398.55;;
52888;SDS011;41413;52.770;6.892;2023-05-07T00:11:08;370.55;;;333.45;;
52888;SDS011;41413;52.770;6.892;2023-05-07T00:13:34;427.05;;;382.48;;
52888;SDS011;41413;52.770;6.892;2023-05-07T00:16:02;352.33;;;318.08;;
52888;SDS011;41413;52.770;6.892;2023-05-07T00:18:29;360.15;;;323.05;;
52888;SDS011;41413;52.770;6.892;2023-05-07T00:20:56;458.90;;;411.40;;
52888;SDS011;41413;52.770;6.892;2023-05-07T00:23:23;483.60;;;435.25;;
52888;SDS011;41413;52.770;6.892;2023-05-07T00:25:49;441.80;;;396.60;;
52888;SDS011;41413;52.770;6.892;2023-05-07T00:28:16;476.20;;;426.98;;
52888;SDS011;41413;52.770;6.892;2023-05-07T00:30:43;502.35;;;453.05;;
52888;SDS011;41413;52.770;6.892;2023-05-07T00:33:09;418.90;;;378.08;;
52888;SDS011;41413;52.770;6.892;2023-05-07T00:35:36;397.60;;;358.52;;
52888;SDS011;41413;52.770;6.892;2023-05-07T00:38:03;455.00;;;409.48;;
52888;SDS011;41413;52.770;6.892;2023-05-07T00:40:30;478.65;;;431.35;;
52888;SDS011;41413;52.770;6.892;2023-05-07T00:42:56;373.98;;;334.83;;
52888;SDS011;41413;52.770;6.892;2023-05-07T00:45:27;493.50;;;443.42;;
52888;SDS011;41413;52.770;6.892;2023-05-07T00:47:55;505.80;;;453.58;;
52888;SDS011;41413;52.770;6.892;2023-05-07T00:50:23;453.48;;;409.60;;
52888;SDS011;41413;52.770;6.892;2023-05-07T00:52:51;357.30;;;320.60;;
52888;SDS011;41413;52.770;6.892;2023-05-07T00:55:17;370.30;;;331.45;;
52888;SDS011;41413;52.770;6.892;2023-05-07T00:57:44;434.90;;;390.08;;
52888;SDS011;41413;52.770;6.892;2023-05-07T01:00:11;430.33;;;384.33;;
52888;SDS011;41413;52.770;6.892;2023-05-07T01:02:40;454.15;;;405.50;;
52888;SDS011;41413;52.770;6.892;2023-05-07T01:05:08;454.98;;;406.65;;
52888;SDS011;41413;52.770;6.892;2023-05-07T01:07:41;378.20;;;336.73;;
52888;SDS011;41413;52.770;6.892;2023-05-07T01:10:09;355.50;;;318.42;;
52888;SDS011;41413;52.770;6.892;2023-05-07T01:12:38;465.75;;;415.00;;
52888;SDS011;41413;52.770;6.892;2023-05-07T01:15:07;434.15;;;390.48;;
52888;SDS011;41413;52.770;6.892;2023-05-07T01:17:39;421.70;;;376.63;;
52888;SDS011;41413;52.770;6.892;2023-05-07T01:20:07;492.70;;;439.92;;
52888;SDS011;41413;52.770;6.892;2023-05-07T01:22:37;429.17;;;383.05;;
52888;SDS011;41413;52.770;6.892;2023-05-07T01:25:04;379.50;;;338.65;;
52888;SDS011;41413;52.770;6.892;2023-05-07T01:27:32;453.08;;;406.38;;
52888;SDS011;41413;52.770;6.892;2023-05-07T01:29:59;400.92;;;359.77;;
52888;SDS011;41413;52.770;6.892;2023-05-07T01:32:33;380.05;;;343.52;;
52888;SDS011;41413;52.770;6.892;2023-05-07T01:35:02;412.35;;;369.20;;
52888;SDS011;41413;52.770;6.892;2023-05-07T01:37:31;435.42;;;389.30;;
52888;SDS011;41413;52.770;6.892;2023-05-07T01:39:58;436.40;;;392.77;;
52888;SDS011;41413;52.770;6.892;2023-05-07T01:42:27;457.85;;;408.50;;
52888;SDS011;41413;52.770;6.892;2023-05-07T01:44:57;390.05;;;349.33;;
52888;SDS011;41413;52.770;6.892;2023-05-07T01:47:24;416.33;;;372.67;;
52888;SDS011;41413;52.770;6.892;2023-05-07T01:49:52;380.05;;;342.23;;
52888;SDS011;41413;52.770;6.892;2023-05-07T01:52:19;438.58;;;392.50;;
52888;SDS011;41413;52.770;6.892;2023-05-07T01:54:46;512.95;;;459.55;;
52888;SDS011;41413;52.770;6.892;2023-05-07T01:57:12;448.73;;;401.85;;
52888;SDS011;41413;52.770;6.892;2023-05-07T01:59:39;412.20;;;368.90;;
52888;SDS011;41413;52.770;6.892;2023-05-07T02:02:05;450.15;;;403.85;;
52888;SDS011;41413;52.770;6.892;2023-05-07T02:04:32;415.63;;;373.08;;
52888;SDS011;41413;52.770;6.892;2023-05-07T02:06:59;461.35;;;413.77;;
52888;SDS011;41413;52.770;6.892;2023-05-07T02:09:26;401.40;;;360.83;;
52888;SDS011;41413;52.770;6.892;2023-05-07T02:11:53;423.63;;;378.50;;
52888;SDS011;41413;52.770;6.892;2023-05-07T02:14:19;400.42;;;360.40;;
52888;SDS011;41413;52.770;6.892;2023-05-07T02:16:46;421.63;;;377.42;;
52888;SDS011;41413;52.770;6.892;2023-05-07T02:19:13;550.72;;;492.52;;
52888;SDS011;41413;52.770;6.892;2023-05-07T02:21:40;401.17;;;359.38;;
52888;SDS011;41413;52.770;6.892;2023-05-07T02:24:07;474.23;;;425.80;;
52888;SDS011;41413;52.770;6.892;2023-05-07T02:26:33;456.60;;;408.85;;
52888;SDS011;41413;52.770;6.892;2023-05-07T02:29:00;367.05;;;329.67;;
52888;SDS011;41413;52.770;6.892;2023-05-07T02:31:27;476.38;;;425.73;;
52888;SDS011;41413;52.770;6.892;2023-05-07T02:33:54;383.40;;;344.80;;
52888;SDS011;41413;52.770;6.892;2023-05-07T02:36:20;474.55;;;425.17;;
52888;SDS011;41413;52.770;6.892;2023-05-07T02:38:47;457.38;;;409.75;;
52888;SDS011;41413;52.770;6.892;2023-05-07T02:41:13;407.45;;;364.42;;
52888;SDS011;41413;52.770;6.892;2023-05-07T02:43:40;407.02;;;363.85;;
52888;SDS011;41413;52.770;6.892;2023-05-07T02:46:08;464.35;;;414.90;;
52888;SDS011;41413;52.770;6.892;2023-05-07T02:48:35;381.73;;;339.95;;
52888;SDS011;41413;52.770;6.892;2023-05-07T02:51:02;456.48;;;409.63;;
52888;SDS011;41413;52.770;6.892;2023-05-07T02:53:31;502.75;;;450.50;;
52888;SDS011;41413;52.770;6.892;2023-05-07T02:55:58;368.23;;;330.00;;
52888;SDS011;41413;52.770;6.892;2023-05-07T02:58:26;458.55;;;409.75;;
52888;SDS011;41413;52.770;6.892;2023-05-07T03:00:53;427.60;;;384.02;;
52888;SDS011;41413;52.770;6.892;2023-05-07T03:03:23;380.55;;;340.40;;
52888;SDS011;41413;52.770;6.892;2023-05-07T03:05:50;431.33;;;385.40;;
52888;SDS011;41413;52.770;6.892;2023-05-07T03:08:17;476.85;;;428.25;;
52888;SDS011;41413;52.770;6.892;2023-05-07T03:10:43;480.08;;;427.25;;
52888;SDS011;41413;52.770;6.892;2023-05-07T03:13:10;397.95;;;356.42;;
52888;SDS011;41413;52.770;6.892;2023-05-07T03:15:37;423.10;;;378.95;;
52888;SDS011;41413;52.770;6.892;2023-05-07T03:18:03;400.15;;;356.40;;
52888;SDS011;41413;52.770;6.892;2023-05-07T03:20:30;475.83;;;424.58;;
52888;SDS011;41413;52.770;6.892;2023-05-07T03:22:57;500.63;;;447.98;;
52888;SDS011;41413;52.770;6.892;2023-05-07T03:25:24;408.45;;;367.17;;
52888;SDS011;41413;52.770;6.892;2023-05-07T03:27:51;381.42;;;341.65;;
52888;SDS011;41413;52.770;6.892;2023-05-07T03:30:17;406.98;;;364.38;;
52888;SDS011;41413;52.770;6.892;2023-05-07T03:32:45;482.75;;;434.10;;
52888;SDS011;41413;52.770;6.892;2023-05-07T03:35:11;422.00;;;376.48;;
52888;SDS011;41413;52.770;6.892;2023-05-07T03:37:38;433.20;;;388.25;;
52888;SDS011;41413;52.770;6.892;2023-05-07T03:40:05;438.15;;;393.92;;
52888;SDS011;41413;52.770;6.892;2023-05-07T03:42:33;420.67;;;378.92;;
52888;SDS011;41413;52.770;6.892;2023-05-07T03:45:00;429.30;;;384.10;;
52888;SDS011;41413;52.770;6.892;2023-05-07T03:47:27;450.52;;;405.73;;
52888;SDS011;41413;52.770;6.892;2023-05-07T03:49:53;443.33;;;397.63;;
52888;SDS011;41413;52.770;6.892;2023-05-07T03:52:21;451.92;;;405.52;;
52888;SDS011;41413;52.770;6.892;2023-05-07T03:54:52;505.40;;;455.45;;
52888;SDS011;41413;52.770;6.892;2023-05-07T03:57:19;470.63;;;424.20;;
52888;SDS011;41413;52.770;6.892;2023-05-07T03:59:46;420.95;;;379.88;;
52888;SDS011;41413;52.770;6.892;2023-05-07T04:02:13;392.73;;;352.27;;
52888;SDS011;41413;52.770;6.892;2023-05-07T04:04:40;451.85;;;404.48;;
52888;SDS011;41413;52.770;6.892;2023-05-07T04:07:06;335.55;;;302.77;;
52888;SDS011;41413;52.770;6.892;2023-05-07T04:09:33;410.95;;;367.60;;
52888;SDS011;41413;52.770;6.892;2023-05-07T04:12:00;490.60;;;439.33;;
52888;SDS011;41413;52.770;6.892;2023-05-07T04:14:27;430.88;;;385.00;;
52888;SDS011;41413;52.770;6.892;2023-05-07T04:16:54;441.27;;;395.63;;
52888;SDS011;41413;52.770;6.892;2023-05-07T04:19:21;420.35;;;377.73;;
52888;SDS011;41413;52.770;6.892;2023-05-07T04:21:47;349.75;;;314.60;;
52888;SDS011;41413;52.770;6.892;2023-05-07T04:24:14;423.42;;;381.40;;
52888;SDS011;41413;52.770;6.892;2023-05-07T04:26:41;357.90;;;321.35;;
52888;SDS011;41413;52.770;6.892;2023-05-07T04:29:07;458.77;;;412.13;;
52888;SDS011;41413;52.770;6.892;2023-05-07T04:31:34;398.10;;;357.77;;
52888;SDS011;41413;52.770;6.892;2023-05-07T04:34:01;393.48;;;353.75;;
52888;SDS011;41413;52.770;6.892;2023-05-07T04:36:28;306.52;;;274.73;;
52888;SDS011;41413;52.770;6.892;2023-05-07T04:38:55;371.88;;;335.27;;
52888;SDS011;41413;52.770;6.892;2023-05-07T04:41:21;430.10;;;387.65;;
52888;SDS011;41413;52.770;6.892;2023-05-07T04:43:48;372.27;;;333.60;;
52888;SDS011;41413;52.770;6.892;2023-05-07T04:46:15;404.13;;;362.83;;
52888;SDS011;41413;52.770;6.892;2023-05-07T04:48:42;464.35;;;417.30;;
52888;SDS011;41413;52.770;6.892;2023-05-07T04:51:09;398.25;;;358.30;;
52888;SDS011;41413;52.770;6.892;2023-05-07T04:53:35;409.58;;;366.38;;
52888;SDS011;41413;52.770;6.892;2023-05-07T04:56:03;399.83;;;359.67;;
52888;SDS011;41413;52.770;6.892;2023-05-07T04:58:30;452.85;;;407.63;;
52888;SDS011;41413;52.770;6.892;2023-05-07T05:00:58;412.48;;;370.90;;
52888;SDS011;41413;52.770;6.892;2023-05-07T05:03:26;424.00;;;381.52;;
52888;SDS011;41413;52.770;6.892;2023-05-07T05:05:53;380.90;;;341.75;;
52888;SDS011;41413;52.770;6.892;2023-05-07T05:08:19;519.25;;;466.02;;
52888;SDS011;41413;52.770;6.892;2023-05-07T05:10:46;434.25;;;390.13;;
52888;SDS011;41413;52.770;6.892;2023-05-07T05:13:14;399.35;;;358.20;;
52888;SDS011;41413;52.770;6.892;2023-05-07T05:15:41;431.25;;;387.45;;
52888;SDS011;41413;52.770;6.892;2023-05-07T05:18:08;379.50;;;342.27;;
52888;SDS011;41413;52.770;6.892;2023-05-07T05:20:35;403.85;;;362.85;;
52888;SDS011;41413;52.770;6.892;2023-05-07T05:23:02;399.35;;;359.17;;
52888;SDS011;41413;52.770;6.892;2023-05-07T05:25:28;343.20;;;308.77;;
52888;SDS011;41413;52.770;6.892;2023-05-07T05:27:55;369.65;;;332.42;;
52888;SDS011;41413;52.770;6.892;2023-05-07T05:30:22;438.45;;;394.73;;
52888;SDS011;41413;52.770;6.892;2023-05-07T05:32:49;441.58;;;396.38;;
52888;SDS011;41413;52.770;6.892;2023-05-07T05:35:16;411.10;;;370.42;;
52888;SDS011;41413;52.770;6.892;2023-05-07T05:37:43;470.65;;;420.55;;
52888;SDS011;41413;52.770;6.892;2023-05-07T05:40:10;422.40;;;377.58;;
52888;SDS011;41413;52.770;6.892;2023-05-07T05:42:37;426.83;;;384.08;;
52888;SDS011;41413;52.770;6.892;2023-05-07T05:45:04;384.17;;;345.30;;
52888;SDS011;41413;52.770;6.892;2023-05-07T05:47:31;348.60;;;313.60;;
52888;SDS011;41413;52.770;6.892;2023-05-07T05:49:58;437.80;;;393.10;;
52888;SDS011;41413;52.770;6.892;2023-05-07T05:52:25;441.08;;;396.50;;
52888;SDS011;41413;52.770;6.892;2023-05-07T05:54:53;373.35;;;336.70;;
52888;SDS011;41413;52.770;6.892;2023-05-07T05:57:19;431.77;;;388.55;;
52888;SDS011;41413;52.770;6.892;2023-05-07T05:59:46;453.92;;;407.05;;
52888;SDS011;41413;52.770;6.892;2023-05-07T06:02:13;467.58;;;421.80;;
52888;SDS011;41413;52.770;6.892;2023-05-07T06:04:40;430.77;;;387.40;;
52888;SDS011;41413;52.770;6.892;2023-05-07T06:07:08;370.88;;;335.77;;
52888;SDS011;41413;52.770;6.892;2023-05-07T06:09:35;404.48;;;364.95;;
52888;SDS011;41413;52.770;6.892;2023-05-07T06:12:02;363.98;;;329.70;;
52888;SDS011;41413;52.770;6.892;2023-05-07T06:14:29;424.08;;;381.13;;
52888;SDS011;41413;52.770;6.892;2023-05-07T06:16:56;402.65;;;362.88;;
52888;SDS011;41413;52.770;6.892;2023-05-07T06:19:23;403.75;;;362.02;;
52888;SDS011;41413;52.770;6.892;2023-05-07T06:21:50;458.55;;;413.42;;
52888;SDS011;41413;52.770;6.892;2023-05-07T06:24:16;419.52;;;376.33;;
52888;SDS011;41413;52.770;6.892;2023-05-07T06:26:43;356.05;;;320.33;;
52888;SDS011;41413;52.770;6.892;2023-05-07T06:29:10;392.55;;;354.25;;
52888;SDS011;41413;52.770;6.892;2023-05-07T06:31:37;414.80;;;375.05;;
52888;SDS011;41413;52.770;6.892;2023-05-07T06:34:03;453.77;;;409.63;;
52888;SDS011;41413;52.770;6.892;2023-05-07T06:36:31;433.23;;;391.27;;
52888;SDS011;41413;52.770;6.892;2023-05-07T06:38:57;356.10;;;319.90;;
52888;SDS011;41413;52.770;6.892;2023-05-07T06:41:24;431.10;;;387.48;;
52888;SDS011;41413;52.770;6.892;2023-05-07T06:43:51;461.30;;;415.67;;
52888;SDS011;41413;52.770;6.892;2023-05-07T06:46:18;385.80;;;346.85;;
52888;SDS011;41413;52.770;6.892;2023-05-07T06:48:45;361.40;;;325.10;;
52888;SDS011;41413;52.770;6.892;2023-05-07T06:51:12;434.95;;;392.17;;
52888;SDS011;41413;52.770;6.892;2023-05-07T06:53:38;457.67;;;410.70;;
52888;SDS011;41413;52.770;6.892;2023-05-07T06:56:05;415.33;;;373.27;;
52888;SDS011;41413;52.770;6.892;2023-05-07T06:58:32;381.40;;;345.95;;
52888;SDS011;41413;52.770;6.892;2023-05-07T07:00:59;310.63;;;278.90;;
52888;SDS011;41413;52.770;6.892;2023-05-07T07:03:26;454.42;;;408.48;;
52888;SDS011;41413;52.770;6.892;2023-05-07T07:05:53;423.45;;;379.80;;
52888;SDS011;41413;52.770;6.892;2023-05-07T07:08:21;424.88;;;381.48;;
52888;SDS011;41413;52.770;6.892;2023-05-07T07:10:48;371.13;;;334.17;;
52888;SDS011;41413;52.770;6.892;2023-05-07T07:13:18;357.00;;;321.20;;
52888;SDS011;41413;52.770;6.892;2023-05-07T07:15:45;394.80;;;354.85;;
52888;SDS011;41413;52.770;6.892;2023-05-07T07:18:12;416.58;;;374.50;;
52888;SDS011;41413;52.770;6.892;2023-05-07T07:20:38;350.75;;;314.35;;
52888;SDS011;41413;52.770;6.892;2023-05-07T07:23:05;416.73;;;374.92;;
52888;SDS011;41413;52.770;6.892;2023-05-07T07:25:32;399.00;;;358.35;;
52888;SDS011;41413;52.770;6.892;2023-05-07T07:27:59;453.67;;;407.67;;
52888;SDS011;41413;52.770;6.892;2023-05-07T07:30:25;400.92;;;361.70;;
52888;SDS011;41413;52.770;6.892;2023-05-07T07:32:52;429.27;;;385.88;;
52888;SDS011;41413;52.770;6.892;2023-05-07T07:35:19;383.98;;;345.67;;
52888;SDS011;41413;52.770;6.892;2023-05-07T07:37:46;443.60;;;399.00;;
52888;SDS011;41413;52.770;6.892;2023-05-07T07:40:16;362.02;;;324.67;;
52888;SDS011;41413;52.770;6.892;2023-05-07T07:42:42;437.92;;;395.42;;
52888;SDS011;41413;52.770;6.892;2023-05-07T07:45:10;442.33;;;396.98;;
52888;SDS011;41413;52.770;6.892;2023-05-07T07:47:36;413.92;;;373.55;;
52888;SDS011;41413;52.770;6.892;2023-05-07T07:50:03;401.17;;;361.55;;
52888;SDS011;41413;52.770;6.892;2023-05-07T07:52:31;431.30;;;390.55;;
52888;SDS011;41413;52.770;6.892;2023-05-07T07:54:58;396.30;;;358.85;;
52888;SDS011;41413;52.770;6.892;2023-05-07T07:57:25;406.30;;;367.63;;
52888;SDS011;41413;52.770;6.892;2023-05-07T07:59:51;358.25;;;323.95;;
52888;SDS011;41413;52.770;6.892;2023-05-07T08:02:18;396.83;;;358.45;;
52888;SDS011;41413;52.770;6.892;2023-05-07T08:04:45;361.52;;;326.63;;
52888;SDS011;41413;52.770;6.892;2023-05-07T08:07:12;391.25;;;353.52;;
52888;SDS011;41413;52.770;6.892;2023-05-07T08:09:39;459.75;;;416.92;;
52888;SDS011;41413;52.770;6.892;2023-05-07T08:12:06;410.00;;;368.95;;
52888;SDS011;41413;52.770;6.892;2023-05-07T08:14:34;394.13;;;355.23;;
52888;SDS011;41413;52.770;6.892;2023-05-07T08:17:02;410.67;;;371.50;;
52888;SDS011;41413;52.770;6.892;2023-05-07T08:19:29;378.13;;;342.25;;
52888;SDS011;41413;52.770;6.892;2023-05-07T08:21:56;396.88;;;356.70;;
52888;SDS011;41413;52.770;6.892;2023-05-07T08:24:22;428.15;;;387.27;;
52888;SDS011;41413;52.770;6.892;2023-05-07T08:26:49;335.13;;;302.70;;
52888;SDS011;41413;52.770;6.892;2023-05-07T08:29:16;375.23;;;339.17;;
52888;SDS011;41413;52.770;6.892;2023-05-07T08:31:43;419.35;;;380.13;;
52888;SDS011;41413;52.770;6.892;2023-05-07T08:34:09;424.83;;;385.85;;
52888;SDS011;41413;52.770;6.892;2023-05-07T08:36:36;290.60;;;264.30;;
52888;SDS011;41413;52.770;6.892;2023-05-07T08:39:03;339.65;;;307.98;;
52888;SDS011;41413;52.770;6.892;2023-05-07T08:41:30;353.95;;;320.60;;
52888;SDS011;41413;52.770;6.892;2023-05-07T08:43:57;312.55;;;283.10;;
52888;SDS011;41413;52.770;6.892;2023-05-07T08:46:26;309.30;;;282.25;;
52888;SDS011;41413;52.770;6.892;2023-05-07T08:48:57;294.85;;;269.17;;
52888;SDS011;41413;52.770;6.892;2023-05-07T08:51:24;294.80;;;269.65;;
52888;SDS011;41413;52.770;6.892;2023-05-07T08:53:51;358.30;;;328.20;;
52888;SDS011;41413;52.770;6.892;2023-05-07T08:56:18;286.20;;;262.50;;
52888;SDS011;41413;52.770;6.892;2023-05-07T08:58:47;317.52;;;292.58;;
52888;SDS011;41413;52.770;6.892;2023-05-07T09:01:15;295.52;;;272.08;;
52888;SDS011;41413;52.770;6.892;2023-05-07T09:03:44;298.02;;;273.05;;
52888;SDS011;41413;52.770;6.892;2023-05-07T09:06:12;296.30;;;271.55;;
52888;SDS011;41413;52.770;6.892;2023-05-07T09:08:39;303.35;;;279.00;;
52888;SDS011;41413;52.770;6.892;2023-05-07T09:11:05;309.13;;;285.25;;
52888;SDS011;41413;52.770;6.892;2023-05-07T09:13:32;233.95;;;216.23;;
52888;SDS011;41413;52.770;6.892;2023-05-07T09:16:01;181.68;;;169.07;;
52888;SDS011;41413;52.770;6.892;2023-05-07T09:18:40;137.32;;;128.38;;
52888;SDS011;41413;52.770;6.892;2023-05-07T09:21:11;102.28;;;95.32;;
52888;SDS011;41413;52.770;6.892;2023-05-07T09:23:41;81.95;;;76.38;;
52888;SDS011;41413;52.770;6.892;2023-05-07T09:26:08;107.30;;;100.68;;
52888;SDS011;41413;52.770;6.892;2023-05-07T09:28:41;85.68;;;80.53;;
52888;SDS011;41413;52.770;6.892;2023-05-07T09:31:09;96.72;;;90.93;;
52888;SDS011;41413;52.770;6.892;2023-05-07T09:33:37;89.00;;;83.43;;
52888;SDS011;41413;52.770;6.892;2023-05-07T09:36:05;84.30;;;79.03;;
52888;SDS011;41413;52.770;6.892;2023-05-07T09:38:33;59.13;;;55.33;;
52888;SDS011;41413;52.770;6.892;2023-05-07T09:41:02;49.00;;;45.55;;
52888;SDS011;41413;52.770;6.892;2023-05-07T09:43:35;37.28;;;34.63;;
52888;SDS011;41413;52.770;6.892;2023-05-07T09:46:06;24.88;;;22.52;;
52888;SDS011;41413;52.770;6.892;2023-05-07T09:48:44;42.85;;;39.88;;
52888;SDS011;41413;52.770;6.892;2023-05-07T09:51:30;26.23;;;23.77;;
52888;SDS011;41413;52.770;6.892;2023-05-07T09:54:04;33.28;;;30.85;;
52888;SDS011;41413;52.770;6.892;2023-05-07T09:56:31;44.35;;;41.03;;
52888;SDS011;41413;52.770;6.892;2023-05-07T09:59:01;28.75;;;26.45;;
52888;SDS011;41413;52.770;6.892;2023-05-07T10:01:30;23.10;;;21.08;;
52888;SDS011;41413;52.770;6.892;2023-05-07T10:03:58;21.42;;;19.52;;
52888;SDS011;41413;52.770;6.892;2023-05-07T10:06:25;22.17;;;20.13;;
52888;SDS011;41413;52.770;6.892;2023-05-07T10:08:53;23.08;;;20.92;;
52888;SDS011;41413;52.770;6.892;2023-05-07T10:11:21;20.88;;;18.98;;
52888;SDS011;41413;52.770;6.892;2023-05-07T10:13:48;23.20;;;20.88;;
52888;SDS011;41413;52.770;6.892;2023-05-07T10:16:17;22.10;;;20.02;;
52888;SDS011;41413;52.770;6.892;2023-05-07T10:18:45;22.27;;;20.23;;
52888;SDS011;41413;52.770;6.892;2023-05-07T10:21:16;22.02;;;20.10;;
52888;SDS011;41413;52.770;6.892;2023-05-07T10:23:48;22.35;;;20.35;;
52888;SDS011;41413;52.770;6.892;2023-05-07T10:26:20;22.67;;;20.67;;
52888;SDS011;41413;52.770;6.892;2023-05-07T10:28:49;21.73;;;19.67;;
52888;SDS011;41413;52.770;6.892;2023-05-07T10:31:35;20.50;;;18.73;;
52888;SDS011;41413;52.770;6.892;2023-05-07T10:34:22;22.48;;;20.48;;
52888;SDS011;41413;52.770;6.892;2023-05-07T10:36:52;20.60;;;18.38;;
52888;SDS011;41413;52.770;6.892;2023-05-07T10:39:21;21.83;;;19.73;;
52888;SDS011;41413;52.770;6.892;2023-05-07T10:41:48;21.40;;;19.40;;
52888;SDS011;41413;52.770;6.892;2023-05-07T10:44:28;19.42;;;17.45;;
52888;SDS011;41413;52.770;6.892;2023-05-07T10:47:05;21.05;;;19.10;;
52888;SDS011;41413;52.770;6.892;2023-05-07T10:49:35;21.20;;;19.20;;
52888;SDS011;41413;52.770;6.892;2023-05-07T10:52:22;23.08;;;20.60;;
52888;SDS011;41413;52.770;6.892;2023-05-07T10:57:44;23.55;;;21.38;;
52888;SDS011;41413;52.770;6.892;2023-05-07T11:03:06;21.83;;;19.85;;
52888;SDS011;41413;52.770;6.892;2023-05-07T11:05:34;20.92;;;19.13;;
52888;SDS011;41413;52.770;6.892;2023-05-07T11:08:04;20.73;;;18.92;;
52888;SDS011;41413;52.770;6.892;2023-05-07T11:10:47;22.25;;;20.45;;
52888;SDS011;41413;52.770;6.892;2023-05-07T11:13:18;21.73;;;19.73;;
52888;SDS011;41413;52.770;6.892;2023-05-07T11:16:15;19.85;;;18.15;;
52888;SDS011;41413;52.770;6.892;2023-05-07T11:18:47;20.10;;;18.30;;
52888;SDS011;41413;52.770;6.892;2023-05-07T11:21:31;20.95;;;19.02;;
52888;SDS011;41413;52.770;6.892;2023-05-07T11:23:58;22.70;;;20.63;;
52888;SDS011;41413;52.770;6.892;2023-05-07T11:26:26;39.50;;;36.45;;
52888;SDS011;41413;52.770;6.892;2023-05-07T11:28:54;52.25;;;48.92;;
52888;SDS011;41413;52.770;6.892;2023-05-07T11:31:22;83.93;;;79.05;;
52888;SDS011;41413;52.770;6.892;2023-05-07T11:33:52;82.22;;;76.80;;
52888;SDS011;41413;52.770;6.892;2023-05-07T11:36:21;104.63;;;98.22;;
52888;SDS011;41413;52.770;6.892;2023-05-07T11:38:49;87.97;;;82.55;;
52888;SDS011;41413;52.770;6.892;2023-05-07T11:41:16;139.70;;;130.77;;
52888;SDS011;41413;52.770;6.892;2023-05-07T11:43:53;168.73;;;157.95;;
52888;SDS011;41413;52.770;6.892;2023-05-07T11:46:23;140.75;;;131.75;;
52888;SDS011;41413;52.770;6.892;2023-05-07T11:48:51;147.95;;;139.20;;
52888;SDS011;41413;52.770;6.892;2023-05-07T11:51:21;157.85;;;147.73;;
52888;SDS011;41413;52.770;6.892;2023-05-07T11:53:49;138.98;;;129.70;;
52888;SDS011;41413;52.770;6.892;2023-05-07T11:56:16;123.68;;;115.65;;
52888;SDS011;41413;52.770;6.892;2023-05-07T11:58:44;166.13;;;155.25;;
52888;SDS011;41413;52.770;6.892;2023-05-07T12:01:13;175.82;;;164.05;;
52888;SDS011;41413;52.770;6.892;2023-05-07T12:03:41;156.25;;;146.32;;
52888;SDS011;41413;52.770;6.892;2023-05-07T12:06:09;161.05;;;150.10;;
52888;SDS011;41413;52.770;6.892;2023-05-07T12:08:37;162.60;;;151.70;;
52888;SDS011;41413;52.770;6.892;2023-05-07T12:11:24;187.27;;;175.48;;
52888;SDS011;41413;52.770;6.892;2023-05-07T12:13:53;207.45;;;193.77;;
52888;SDS011;41413;52.770;6.892;2023-05-07T12:16:24;137.27;;;128.20;;
52888;SDS011;41413;52.770;6.892;2023-05-07T12:18:51;213.82;;;199.23;;
52888;SDS011;41413;52.770;6.892;2023-05-07T12:21:21;184.23;;;171.70;;
52888;SDS011;41413;52.770;6.892;2023-05-07T12:23:49;185.98;;;173.05;;
52888;SDS011;41413;52.770;6.892;2023-05-07T12:26:15;184.07;;;171.30;;
52888;SDS011;41413;52.770;6.892;2023-05-07T12:28:42;185.13;;;172.93;;
52888;SDS011;41413;52.770;6.892;2023-05-07T12:31:09;254.52;;;236.82;;
52888;SDS011;41413;52.770;6.892;2023-05-07T12:33:36;239.38;;;222.80;;
52888;SDS011;41413;52.770;6.892;2023-05-07T12:36:04;227.43;;;211.90;;
52888;SDS011;41413;52.770;6.892;2023-05-07T12:38:37;231.43;;;215.38;;
52888;SDS011;41413;52.770;6.892;2023-05-07T12:41:07;210.77;;;196.07;;
52888;SDS011;41413;52.770;6.892;2023-05-07T12:43:35;202.40;;;187.73;;
52888;SDS011;41413;52.770;6.892;2023-05-07T12:46:06;258.77;;;240.25;;
52888;SDS011;41413;52.770;6.892;2023-05-07T12:48:36;242.65;;;227.30;;
52888;SDS011;41413;52.770;6.892;2023-05-07T12:51:04;182.75;;;170.40;;
52888;SDS011;41413;52.770;6.892;2023-05-07T12:53:32;232.10;;;216.32;;
52888;SDS011;41413;52.770;6.892;2023-05-07T12:55:59;183.50;;;170.15;;
52888;SDS011;41413;52.770;6.892;2023-05-07T12:58:27;189.63;;;177.13;;
52888;SDS011;41413;52.770;6.892;2023-05-07T13:00:55;178.88;;;166.77;;
52888;SDS011;41413;52.770;6.892;2023-05-07T13:06:18;178.50;;;165.88;;
52888;SDS011;41413;52.770;6.892;2023-05-07T13:08:45;187.90;;;174.30;;
52888;SDS011;41413;52.770;6.892;2023-05-07T13:11:12;182.10;;;170.35;;
52888;SDS011;41413;52.770;6.892;2023-05-07T13:13:39;171.05;;;159.73;;
52888;SDS011;41413;52.770;6.892;2023-05-07T13:16:07;212.65;;;198.55;;
52888;SDS011;41413;52.770;6.892;2023-05-07T13:18:36;208.05;;;193.65;;
52888;SDS011;41413;52.770;6.892;2023-05-07T13:21:04;228.90;;;212.35;;
52888;SDS011;41413;52.770;6.892;2023-05-07T13:23:31;221.27;;;206.18;;
52888;SDS011;41413;52.770;6.892;2023-05-07T13:25:58;171.13;;;159.27;;
52888;SDS011;41413;52.770;6.892;2023-05-07T13:28:29;177.10;;;164.55;;
52888;SDS011;41413;52.770;6.892;2023-05-07T13:30:56;200.30;;;185.73;;
52888;SDS011;41413;52.770;6.892;2023-05-07T13:33:23;243.38;;;225.05;;
52888;SDS011;41413;52.770;6.892;2023-05-07T13:35:50;227.88;;;211.82;;
52888;SDS011;41413;52.770;6.892;2023-05-07T13:38:16;246.63;;;229.82;;
52888;SDS011;41413;52.770;6.892;2023-05-07T13:40:44;187.70;;;174.18;;
52888;SDS011;41413;52.770;6.892;2023-05-07T13:43:10;190.25;;;175.95;;
52888;SDS011;41413;52.770;6.892;2023-05-07T13:45:37;239.05;;;220.55;;
52888;SDS011;41413;52.770;6.892;2023-05-07T13:48:04;240.93;;;223.55;;
52888;SDS011;41413;52.770;6.892;2023-05-07T13:50:31;149.93;;;139.55;;
52888;SDS011;41413;52.770;6.892;2023-05-07T13:52:57;194.48;;;180.15;;
52888;SDS011;41413;52.770;6.892;2023-05-07T13:55:24;189.65;;;175.73;;
52888;SDS011;41413;52.770;6.892;2023-05-07T13:57:58;210.23;;;195.57;;
52888;SDS011;41413;52.770;6.892;2023-05-07T14:00:26;200.82;;;185.65;;
52888;SDS011;41413;52.770;6.892;2023-05-07T14:02:54;231.57;;;215.65;;
52888;SDS011;41413;52.770;6.892;2023-05-07T14:05:21;156.18;;;145.13;;
52888;SDS011;41413;52.770;6.892;2023-05-07T14:07:52;182.15;;;170.10;;
52888;SDS011;41413;52.770;6.892;2023-05-07T14:10:19;169.57;;;157.48;;
52888;SDS011;41413;52.770;6.892;2023-05-07T14:12:46;192.02;;;178.73;;
52888;SDS011;41413;52.770;6.892;2023-05-07T14:15:13;181.45;;;168.73;;